Time;durP1;ratioP1;P1;durP2;ratioP2;P2;SDS_P1;SDS_P2;PMS_P1;PMS_P2;Temp;Humidity;BMP_temperature;BMP_pressure;BME280_temperature;BME280_humidity;BME280_pressure;Samples;Min_cycle;Max_cycle;Signal;HPM_P1;HPM_P2
2022/11/28 00:02:00;;;;;;;;;10.25;9.25;;;;;9.83;81.17;100746.28;5071298;28;45930;-70
2022/11/28 00:04:25;;;;;;;;;8.00;7.00;;;;;9.82;81.45;100734.06;5076133;28;45472;-70
2022/11/28 00:06:51;;;;;;;;;7.50;7.25;;;;;9.79;81.30;100714.88;5077341;28;45403;-70
2022/11/28 00:09:18;;;;;;;;;7.75;5.00;;;;;9.90;81.12;100728.91;5061140;28;45607;-68
2022/11/28 00:11:45;;;;;;;;;11.00;8.00;;;;;9.90;81.27;100723.66;5073741;28;46349;-69
2022/11/28 00:14:12;;;;;;;;;10.00;8.75;;;;;9.81;81.53;100719.25;5070761;28;45438;-68
2022/11/28 00:16:38;;;;;;;;;7.75;7.00;;;;;9.80;81.78;100708.78;5074290;28;45443;-71
2022/11/28 00:19:04;;;;;;;;;8.25;5.00;;;;;9.80;81.61;100711.38;5076655;27;45298;-70
2022/11/28 00:21:30;;;;;;;;;7.50;7.50;;;;;9.79;81.95;100702.66;5071793;28;45907;-70
2022/11/28 00:23:57;;;;;;;;;8.75;7.75;;;;;9.79;81.59;100684.38;5047701;28;45457;-69
2022/11/28 00:26:30;;;;;;;;;12.25;8.00;;;;;9.90;81.72;100707.97;5070018;28;45419;-70
2022/11/28 00:28:57;;;;;;;;;6.25;6.25;;;;;9.87;81.94;100714.06;5072621;28;45630;-70
2022/11/28 00:31:25;;;;;;;;;8.00;6.50;;;;;9.88;81.88;100699.22;5071837;27;45419;-70
2022/11/28 00:33:51;;;;;;;;;9.25;7.75;;;;;9.85;81.75;100699.22;5073314;28;45403;-70
2022/11/28 00:36:19;;;;;;;;;8.00;7.75;;;;;9.83;82.54;100695.72;5071635;27;45428;-70
2022/11/28 00:38:45;;;;;;;;;7.75;7.25;;;;;9.69;82.02;100673.00;5072306;28;45568;-71
2022/11/28 00:41:13;;;;;;;;;6.00;6.00;;;;;9.79;82.28;100688.72;5056183;28;47083;-70
2022/11/28 00:43:40;;;;;;;;;8.25;6.25;;;;;9.83;81.98;100682.66;5060127;28;45327;-70
2022/11/28 00:46:06;;;;;;;;;8.25;8.25;;;;;9.88;82.21;100697.47;5067276;27;45386;-68
2022/11/28 00:48:33;;;;;;;;;7.75;6.75;;;;;9.90;82.00;100693.13;5058005;28;45452;-69
2022/11/28 00:51:29;;;;;;;;;10.25;7.50;;;;;9.95;81.73;100688.78;5058340;28;46278;-68
2022/11/28 00:53:57;;;;;;;;;8.00;6.50;;;;;9.97;81.88;100684.44;5055267;28;45506;-70
2022/11/28 00:56:27;;;;;;;;;14.00;8.00;;;;;9.91;82.13;100684.41;5069786;27;45749;-69
2022/11/28 00:58:52;;;;;;;;;9.00;6.75;;;;;9.87;81.78;100680.06;5056336;28;45714;-67
2022/11/28 01:01:23;;;;;;;;;8.00;7.25;;;;;9.77;81.88;100666.06;5055198;28;46990;-69
2022/11/28 01:03:50;;;;;;;;;9.00;8.50;;;;;9.86;81.95;100685.28;5056677;28;45481;-71
2022/11/28 01:06:46;;;;;;;;;8.25;7.00;;;;;9.81;81.69;100676.53;5054165;28;45696;-69
2022/11/28 01:09:15;;;;;;;;;7.50;7.50;;;;;9.90;81.57;100679.19;5059352;27;45372;-69
2022/11/28 01:11:42;;;;;;;;;7.50;6.75;;;;;9.88;81.58;100684.41;5059368;28;45480;-69
2022/11/28 01:14:09;;;;;;;;;9.25;7.25;;;;;9.86;82.03;100667.81;5054052;28;45812;-69
2022/11/28 01:16:34;;;;;;;;;7.75;7.25;;;;;9.94;82.17;100681.81;5054078;28;45626;-68
2022/11/28 01:19:00;;;;;;;;;8.25;7.50;;;;;9.92;82.22;100687.91;5058876;28;45571;-72
2022/11/28 01:21:26;;;;;;;;;7.75;7.25;;;;;9.88;82.04;100686.16;5076438;28;45442;-70
2022/11/28 01:23:51;;;;;;;;;8.25;6.25;;;;;9.91;82.10;100684.41;5079346;28;45306;-68
2022/11/28 01:26:28;;;;;;;;;11.25;7.00;;;;;9.81;81.95;100671.31;5078423;27;45750;-68
2022/11/28 01:28:54;;;;;;;;;6.00;6.00;;;;;9.92;81.81;100694.03;5056634;28;45688;-71
2022/11/28 01:31:23;;;;;;;;;5.75;5.50;;;;;9.92;81.66;100688.78;5073952;28;45606;-69
2022/11/28 01:33:49;;;;;;;;;9.25;8.00;;;;;9.98;81.85;100693.16;5074020;28;45516;-71
2022/11/28 01:36:15;;;;;;;;;4.25;4.25;;;;;9.88;81.97;100681.78;5055494;28;45838;-70
2022/11/28 01:38:42;;;;;;;;;9.50;6.75;;;;;9.98;82.37;100701.88;5074472;28;45361;-69
2022/11/28 01:41:08;;;;;;;;;9.50;8.00;;;;;9.88;82.56;100697.47;5074334;27;45984;-70
2022/11/28 01:43:35;;;;;;;;;11.50;8.00;;;;;9.90;82.33;100701.00;5074885;28;45476;-69
2022/11/28 01:46:01;;;;;;;;;8.75;8.00;;;;;9.84;83.07;100697.47;5078662;28;45463;-68
2022/11/28 01:48:36;;;;;;;;;7.25;7.25;;;;;9.88;82.57;100697.47;5078178;28;45521;-71
2022/11/28 01:51:07;;;;;;;;;11.25;6.75;;;;;9.77;82.51;100683.47;5077836;28;46213;-70
2022/11/28 01:53:36;;;;;;;;;11.75;7.00;;;;;10.00;82.52;100714.97;5078056;27;45469;-68
2022/11/28 01:56:14;;;;;;;;;9.25;8.25;;;;;9.97;82.77;100714.97;5076410;28;45844;-69
2022/11/28 01:58:45;;;;;;;;;9.75;7.75;;;;;10.00;82.46;100717.59;5055647;28;45511;-70
2022/11/28 02:01:12;;;;;;;;;11.00;7.75;;;;;9.97;82.34;100712.34;5058444;28;46842;-68
2022/11/28 02:03:44;;;;;;;;;10.25;8.50;;;;;10.07;82.26;100727.22;5074194;28;45350;-68
2022/11/28 02:06:13;;;;;;;;;8.75;6.50;;;;;10.06;81.75;100720.25;5073531;27;45531;-70
2022/11/28 02:08:39;;;;;;;;;10.75;8.25;;;;;10.10;82.13;100718.50;5072202;28;45510;-69
2022/11/28 02:11:39;;;;;;;;;9.75;7.50;;;;;10.09;81.87;100712.41;5057738;27;45453;-69
2022/11/28 02:14:17;;;;;;;;;6.50;6.25;;;;;10.16;81.53;100721.16;5063414;28;45563;-69
2022/11/28 02:17:24;;;;;;;;;8.00;7.75;;;;;10.16;81.77;100713.31;5063678;28;45644;-69
2022/11/28 02:20:20;;;;;;;;;8.25;8.25;;;;;10.18;81.78;100717.66;4955141;28;45429;-70
2022/11/28 02:23:14;;;;;;;;;10.00;8.50;;;;;10.09;81.71;100701.94;5073326;28;46574;-71
2022/11/28 02:26:17;;;;;;;;;11.50;8.00;;;;;10.13;82.28;100706.31;5073240;28;45457;-68
2022/11/28 02:29:01;;;;;;;;;10.25;9.25;;;;;10.17;81.62;100708.06;5044433;28;45658;-71
2022/11/28 02:31:35;;;;;;;;;8.75;8.00;;;;;10.19;81.58;100706.31;5074224;28;45383;-69
2022/11/28 02:34:18;;;;;;;;;13.00;10.25;;;;;10.11;82.14;100700.19;5075644;27;46071;-69
2022/11/28 02:36:56;;;;;;;;;9.50;9.50;;;;;10.10;82.40;100700.19;5077442;28;45359;-68
2022/11/28 02:39:36;;;;;;;;;13.50;9.50;;;;;10.02;83.17;100707.16;5059324;28;45598;-68
2022/11/28 02:42:17;;;;;;;;;10.50;8.50;;;;;9.88;83.03;100681.78;5073267;28;45477;-69
2022/11/28 02:44:57;;;;;;;;;8.25;8.25;;;;;9.97;83.49;100707.13;5069510;28;45662;-68
2022/11/28 02:47:29;;;;;;;;;15.25;10.25;;;;;9.93;83.77;100701.00;5073096;28;45417;-69
2022/11/28 02:50:09;;;;;;;;;10.75;9.00;;;;;10.00;83.87;100693.19;5071601;28;45439;-68
2022/11/28 02:52:47;;;;;;;;;9.50;9.50;;;;;9.99;83.89;100687.06;5074769;28;45492;-68
2022/11/28 02:55:14;;;;;;;;;12.25;8.75;;;;;9.94;83.74;100670.47;5077373;28;46464;-70
2022/11/28 02:57:45;;;;;;;;;10.25;8.25;;;;;9.94;84.17;100666.13;5073513;28;45444;-70
2022/11/28 03:00:26;;;;;;;;;8.00;7.75;;;;;10.00;83.76;100674.84;5053029;28;45487;-69
2022/11/28 03:03:08;;;;;;;;;10.00;10.00;;;;;9.97;83.80;100673.09;5053842;27;45359;-69
2022/11/28 03:05:49;;;;;;;;;10.25;9.75;;;;;9.97;83.67;100673.09;5051008;28;45565;-69
2022/11/28 03:08:50;;;;;;;;;11.00;10.25;;;;;9.90;84.35;100669.59;5052522;28;45332;-69
2022/11/28 03:11:53;;;;;;;;;8.75;7.75;;;;;9.89;84.36;100670.44;5059274;28;45345;-68
2022/11/28 03:14:33;;;;;;;;;13.75;11.00;;;;;9.84;84.96;100658.22;5047161;28;45330;-69
2022/11/28 03:17:13;;;;;;;;;13.50;12.00;;;;;9.79;85.41;100662.56;5053212;28;45796;-68
2022/11/28 03:19:48;;;;;;;;;15.50;7.50;;;;;9.64;85.52;100642.47;5057003;28;45948;-69
2022/11/28 03:22:25;;;;;;;;;13.75;10.75;;;;;9.64;85.55;100655.53;5057466;28;45275;-70
2022/11/28 03:25:22;;;;;;;;;13.25;11.00;;;;;9.68;85.49;100652.94;5071499;28;45382;-68
2022/11/28 03:27:52;;;;;;;;;11.50;11.00;;;;;9.68;85.54;100657.28;5057484;28;45818;-71
2022/11/28 03:30:31;;;;;;;;;11.75;9.75;;;;;9.71;85.45;100655.56;5078572;28;45405;-70
2022/11/28 03:32:59;;;;;;;;;12.00;9.75;;;;;9.87;84.84;100677.44;5075819;27;45378;-70
2022/11/28 03:35:30;;;;;;;;;11.75;8.25;;;;;9.84;84.63;100666.06;5076388;28;45601;-72
2022/11/28 03:38:06;;;;;;;;;13.50;8.75;;;;;9.89;84.43;100674.81;5076433;28;46304;-69
2022/11/28 03:40:38;;;;;;;;;13.25;11.75;;;;;9.82;84.68;100667.81;5046768;28;45433;-69
2022/11/28 03:43:10;;;;;;;;;11.75;10.75;;;;;9.92;84.67;100669.59;5069330;28;45445;-70
2022/11/28 03:45:44;;;;;;;;;9.50;8.50;;;;;9.92;84.34;100664.38;5075776;27;45612;-72
2022/11/28 03:48:17;;;;;;;;;10.50;8.25;;;;;10.07;84.06;100674.00;5074897;28;46936;-69
2022/11/28 03:50:53;;;;;;;;;12.75;9.50;;;;;10.10;83.73;100677.50;5058011;28;45514;-71
2022/11/28 03:53:25;;;;;;;;;9.25;9.25;;;;;10.12;83.71;100669.66;5071404;27;45463;-69
2022/11/28 03:56:07;;;;;;;;;9.25;8.50;;;;;10.03;83.34;100640.84;5058298;28;45639;-69
2022/11/28 03:58:37;;;;;;;;;11.75;8.75;;;;;10.19;83.62;100664.44;5057865;28;47757;-69
2022/11/28 04:01:13;;;;;;;;;11.25;9.25;;;;;10.21;83.11;100663.59;5078752;28;45492;-71
2022/11/28 04:03:56;;;;;;;;;12.50;9.50;;;;;10.21;83.32;100661.84;5058160;28;45477;-71
2022/11/28 04:06:26;;;;;;;;;12.25;11.00;;;;;10.24;83.04;100669.69;5076466;28;45395;-70
2022/11/28 04:09:02;;;;;;;;;13.50;9.75;;;;;10.26;83.10;100660.09;5061251;28;45431;-67
2022/11/28 04:11:42;;;;;;;;;13.00;10.00;;;;;10.28;82.91;100670.59;5056838;28;45484;-70
2022/11/28 04:14:23;;;;;;;;;11.00;10.25;;;;;10.24;83.31;100663.59;5066405;28;45445;-68
2022/11/28 04:17:04;;;;;;;;;12.00;10.50;;;;;10.27;83.05;100680.16;5055142;28;45481;-71
2022/11/28 04:19:37;;;;;;;;;12.50;9.50;;;;;10.30;82.91;100681.97;5075704;28;45510;-70
2022/11/28 04:22:23;;;;;;;;;8.75;8.25;;;;;10.24;82.43;100653.13;5075566;28;46100;-71
2022/11/28 04:24:54;;;;;;;;;11.50;10.00;;;;;10.34;82.53;100676.72;5074608;28;45430;-70
2022/11/28 04:27:27;;;;;;;;;13.50;11.00;;;;;10.30;83.02;100666.25;5057836;27;45449;-68
2022/11/28 04:30:00;;;;;;;;;11.00;10.00;;;;;10.16;83.30;100651.34;5075953;27;46187;-67
2022/11/28 04:32:30;;;;;;;;;11.25;10.00;;;;;10.23;83.04;100661.81;5074249;28;45468;-68
2022/11/28 04:35:04;;;;;;;;;11.50;10.50;;;;;10.25;83.42;100675.78;5058303;27;45726;-70
2022/11/28 04:37:33;;;;;;;;;11.75;10.25;;;;;10.12;82.99;100649.59;5049050;28;45532;-69
2022/11/28 04:39:59;;;;;;;;;13.75;9.50;;;;;10.26;83.56;100664.47;5076796;28;45519;-68
2022/11/28 04:42:39;;;;;;;;;13.00;13.00;;;;;10.25;83.48;100668.84;5079672;27;45436;-70
2022/11/28 04:45:13;;;;;;;;;13.50;9.75;;;;;10.28;83.16;100673.19;5079852;28;45394;-68
2022/11/28 04:47:39;;;;;;;;;10.75;10.75;;;;;10.24;83.32;100671.44;5055597;28;45337;-70
2022/11/28 04:50:05;;;;;;;;;15.25;12.00;;;;;10.14;83.17;100655.72;5071342;28;45523;-68
2022/11/28 04:52:45;;;;;;;;;11.00;10.00;;;;;10.23;82.97;100681.03;5078849;28;45524;-67
2022/11/28 04:55:36;;;;;;;;;10.50;10.25;;;;;10.23;83.13;100670.56;5075238;27;45671;-68
2022/11/28 04:58:23;;;;;;;;;11.00;9.75;;;;;10.23;82.65;100674.91;5059135;28;46631;-68
2022/11/28 05:00:52;;;;;;;;;11.75;8.75;;;;;10.30;82.79;100684.59;5078388;28;45452;-68
2022/11/28 05:03:17;;;;;;;;;13.00;11.25;;;;;10.35;82.83;100680.22;5060859;28;45525;-67
2022/11/28 05:05:48;;;;;;;;;13.00;10.25;;;;;10.30;83.04;100663.66;5078976;28;45636;-69
2022/11/28 05:08:14;;;;;;;;;10.00;8.00;;;;;10.24;83.27;100660.97;5077460;28;45362;-68
2022/11/28 05:10:40;;;;;;;;;11.00;9.75;;;;;10.10;83.97;100651.31;5075080;28;45691;-71
2022/11/28 05:13:05;;;;;;;;;11.75;9.50;;;;;10.11;83.68;100663.56;5078053;28;45453;-69
2022/11/28 05:15:31;;;;;;;;;5.25;3.50;;;;;10.13;83.79;100663.53;5054746;28;45522;-68
2022/11/28 05:17:57;;;;;;;;;16.50;13.00;;;;;10.12;83.99;100667.03;5077287;27;45450;-70
2022/11/28 05:20:23;;;;;;;;;11.00;8.75;;;;;10.10;83.84;100658.31;5056162;27;47501;-71
2022/11/28 05:22:49;;;;;;;;;12.50;10.00;;;;;10.18;83.83;100667.94;5055992;28;46771;-69
2022/11/28 05:25:14;;;;;;;;;9.75;9.50;;;;;10.15;84.15;100659.19;5074956;28;45410;-68
2022/11/28 05:27:40;;;;;;;;;12.00;10.50;;;;;10.25;83.78;100673.16;5075154;28;45496;-72
2022/11/28 05:30:07;;;;;;;;;16.00;12.00;;;;;10.25;83.66;100655.75;5074961;28;46531;-69
2022/11/28 05:32:32;;;;;;;;;11.50;10.00;;;;;10.30;82.86;100654.03;5056697;28;45862;-68
2022/11/28 05:34:58;;;;;;;;;14.50;12.00;;;;;10.33;83.37;100648.78;5056298;28;45741;-69
2022/11/28 05:37:24;;;;;;;;;14.00;12.00;;;;;10.30;83.07;100646.19;5073923;27;45797;-68
2022/11/28 05:39:50;;;;;;;;;8.75;7.75;;;;;10.28;83.18;100652.25;5074069;28;45761;-69
2022/11/28 05:42:16;;;;;;;;;12.75;11.50;;;;;10.36;83.33;100661.88;5073246;27;45474;-69
2022/11/28 05:44:42;;;;;;;;;10.25;9.00;;;;;10.32;83.01;100654.03;5073534;28;45452;-70
2022/11/28 05:47:07;;;;;;;;;12.00;9.25;;;;;10.32;82.85;100651.41;5074204;28;45548;-68
2022/11/28 05:49:33;;;;;;;;;10.25;9.00;;;;;10.35;83.15;100664.53;5059677;28;45773;-69
2022/11/28 05:51:58;;;;;;;;;16.25;9.00;;;;;10.30;83.46;100661.03;5053691;28;45546;-73
2022/11/28 05:54:24;;;;;;;;;15.00;10.00;;;;;10.30;83.46;100661.88;5074337;28;45486;-72
2022/11/28 05:56:50;;;;;;;;;13.50;11.75;;;;;10.29;83.80;100665.34;5078163;28;45421;-73
2022/11/28 05:59:15;;;;;;;;;11.00;11.00;;;;;10.17;83.75;100650.47;5073348;28;45802;-71
2022/11/28 06:01:41;;;;;;;;;15.75;13.50;;;;;10.17;83.66;100660.94;5053779;28;45339;-68
2022/11/28 06:04:06;;;;;;;;;11.00;10.25;;;;;10.25;83.65;100667.94;5054713;28;46083;-68
2022/11/28 06:06:34;;;;;;;;;15.50;11.50;;;;;10.30;83.45;100671.50;5075991;28;45714;-69
2022/11/28 06:09:00;;;;;;;;;12.00;11.00;;;;;10.25;83.59;100667.94;5074025;28;45436;-69
2022/11/28 06:11:28;;;;;;;;;10.25;10.25;;;;;10.25;83.49;100667.94;5055826;28;45448;-71
2022/11/28 06:13:54;;;;;;;;;13.50;9.75;;;;;10.31;83.40;100675.84;5074195;27;45380;-68
2022/11/28 06:16:22;;;;;;;;;9.00;7.25;;;;;10.34;83.36;100674.09;5069846;27;45562;-68
2022/11/28 06:18:58;;;;;;;;;7.50;7.50;;;;;10.31;83.21;100673.22;5052031;28;46690;-68
2022/11/28 06:21:24;;;;;;;;;12.50;10.00;;;;;10.38;83.04;100690.69;5069094;28;45569;-69
2022/11/28 06:23:50;;;;;;;;;14.00;10.75;;;;;10.39;83.37;100695.94;5074211;28;45547;-68
2022/11/28 06:26:19;;;;;;;;;10.50;10.50;;;;;10.40;83.21;100702.91;5055724;27;45754;-69
2022/11/28 06:28:45;;;;;;;;;9.75;8.25;;;;;10.30;83.50;100687.19;5073428;28;46007;-68
2022/11/28 06:31:16;;;;;;;;;11.50;10.25;;;;;10.37;83.10;100692.44;5073587;28;45427;-68
2022/11/28 06:33:42;;;;;;;;;9.50;8.75;;;;;10.41;83.36;100701.16;5075655;28;45431;-67
2022/11/28 06:36:09;;;;;;;;;10.00;10.00;;;;;10.43;83.40;100696.81;5077936;28;45423;-68
2022/11/28 06:38:35;;;;;;;;;14.25;9.75;;;;;10.33;83.11;100693.31;5077539;28;45385;-68
2022/11/28 06:41:04;;;;;;;;;14.75;12.00;;;;;10.38;83.25;100693.31;5072934;27;45557;-67
2022/11/28 06:43:30;;;;;;;;;13.25;10.25;;;;;10.39;83.65;100700.28;5055120;28;45460;-67
2022/11/28 06:45:55;;;;;;;;;14.75;13.00;;;;;10.37;83.53;100696.81;5073311;28;45489;-69
2022/11/28 06:48:21;;;;;;;;;13.75;11.75;;;;;10.30;83.73;100693.31;5076117;28;46174;-68
2022/11/28 06:50:47;;;;;;;;;13.25;11.00;;;;;10.39;83.28;100713.38;5056323;28;45290;-68
2022/11/28 06:53:13;;;;;;;;;16.75;13.50;;;;;10.32;83.32;100712.50;5077811;28;45319;-70
2022/11/28 06:55:39;;;;;;;;;14.75;9.50;;;;;10.33;83.36;100713.38;5063149;28;45532;-68
2022/11/28 06:58:05;;;;;;;;;12.25;11.00;;;;;10.34;83.26;100715.13;5056797;28;45768;-68
2022/11/28 07:00:31;;;;;;;;;10.75;9.00;;;;;10.41;83.20;100714.25;5038549;28;45477;-68
2022/11/28 07:02:57;;;;;;;;;10.00;9.00;;;;;10.43;82.79;100714.28;5059413;28;45333;-68
2022/11/28 07:05:26;;;;;;;;;12.00;9.75;;;;;10.42;83.05;100712.50;5039729;28;45505;-68
2022/11/28 07:07:52;;;;;;;;;13.25;8.25;;;;;10.37;82.88;100712.53;5057877;27;48171;-70
2022/11/28 07:10:19;;;;;;;;;12.75;9.50;;;;;10.42;82.90;100713.41;5057585;28;45448;-69
2022/11/28 07:12:44;;;;;;;;;12.75;9.00;;;;;10.32;83.31;100709.91;5060614;28;45157;-69
2022/11/28 07:15:10;;;;;;;;;10.50;9.25;;;;;10.35;83.44;100706.41;5064524;28;45677;-69
2022/11/28 07:17:36;;;;;;;;;8.25;8.25;;;;;10.45;82.97;100718.63;5054605;28;47552;-68
2022/11/28 07:20:02;;;;;;;;;12.25;9.75;;;;;10.44;82.70;100705.53;5080128;28;45380;-68
2022/11/28 07:22:28;;;;;;;;;10.00;7.75;;;;;10.50;82.33;100722.13;5076841;28;45492;-68
2022/11/28 07:24:53;;;;;;;;;7.50;7.50;;;;;10.50;82.21;100727.38;5075720;28;45637;-69
2022/11/28 07:27:19;;;;;;;;;11.75;7.00;;;;;10.44;82.11;100703.81;5076352;28;45873;-71
2022/11/28 07:29:44;;;;;;;;;6.75;6.75;;;;;10.47;82.24;100711.66;5075636;27;45437;-67
2022/11/28 07:32:10;;;;;;;;;11.25;7.00;;;;;10.46;81.93;100704.66;5070776;28;45401;-70
2022/11/28 07:34:36;;;;;;;;;8.75;8.25;;;;;10.45;81.65;100707.31;5056228;28;45470;-67
2022/11/28 07:37:02;;;;;;;;;9.75;7.25;;;;;10.53;81.85;100736.97;5069125;28;45574;-67
2022/11/28 07:39:27;;;;;;;;;9.75;9.25;;;;;10.52;81.87;100738.72;5039442;28;45627;-68
2022/11/28 07:41:53;;;;;;;;;8.50;8.50;;;;;10.48;82.21;100742.22;5068520;28;45493;-67
2022/11/28 07:44:19;;;;;;;;;16.50;11.50;;;;;10.41;81.89;100722.13;5041752;28;45580;-67
2022/11/28 07:46:45;;;;;;;;;14.00;10.75;;;;;10.45;82.06;100739.59;5053252;28;47980;-68
2022/11/28 07:49:13;;;;;;;;;7.25;6.25;;;;;10.40;82.14;100726.47;5058378;28;45646;-70
2022/11/28 07:51:40;;;;;;;;;9.75;8.75;;;;;10.37;81.73;100725.63;5065684;27;45556;-73
2022/11/28 07:54:06;;;;;;;;;10.75;10.00;;;;;10.35;82.17;100741.31;5063362;28;45449;-70
2022/11/28 07:56:37;;;;;;;;;10.25;7.50;;;;;10.39;82.33;100748.31;5059277;28;45818;-69
2022/11/28 07:59:04;;;;;;;;;8.50;7.00;;;;;10.44;82.01;100750.94;5060596;27;45734;-71
2022/11/28 08:01:33;;;;;;;;;7.75;7.50;;;;;10.43;81.40;100753.56;5046100;28;45385;-69
2022/11/28 08:03:59;;;;;;;;;8.25;8.25;;;;;10.38;81.85;100745.69;5074095;28;45321;-72
2022/11/28 08:06:28;;;;;;;;;10.75;6.00;;;;;10.29;81.21;100730.81;5058738;28;45401;-70
2022/11/28 08:08:54;;;;;;;;;8.25;6.75;;;;;10.36;81.65;100744.78;5070397;28;45441;-69
2022/11/28 08:11:23;;;;;;;;;7.50;7.50;;;;;10.31;81.29;100736.06;5069362;27;45510;-69
2022/11/28 08:13:50;;;;;;;;;9.25;6.00;;;;;10.42;81.07;100752.69;5062753;28;45506;-67
2022/11/28 08:16:20;;;;;;;;;9.25;7.25;;;;;10.47;81.24;100753.56;5060075;28;45569;-69
2022/11/28 08:18:47;;;;;;;;;10.75;8.50;;;;;10.47;80.87;100757.94;5064181;28;45497;-69
2022/11/28 08:21:16;;;;;;;;;11.25;9.50;;;;;10.44;81.19;100771.91;5053848;28;45564;-68
2022/11/28 08:23:44;;;;;;;;;13.00;7.75;;;;;10.49;80.86;100759.69;5060208;28;45462;-68
2022/11/28 08:26:12;;;;;;;;;9.75;6.00;;;;;10.59;81.21;100763.19;5062196;27;47869;-68
2022/11/28 08:28:39;;;;;;;;;9.00;5.25;;;;;10.68;80.44;100760.59;5065471;27;46057;-68
2022/11/28 08:31:22;;;;;;;;;9.25;7.50;;;;;10.76;80.18;100752.75;5073212;28;45821;-68
2022/11/28 08:33:49;;;;;;;;;8.75;7.50;;;;;10.83;79.41;100765.84;5068411;27;45914;-68
2022/11/28 08:36:17;;;;;;;;;9.00;8.25;;;;;10.84;79.51;100769.34;5062128;28;45544;-70
2022/11/28 08:38:45;;;;;;;;;9.00;8.50;;;;;10.90;79.46;100760.63;5064538;28;45350;-69
2022/11/28 08:41:13;;;;;;;;;11.50;8.50;;;;;10.92;79.28;100759.75;5066653;28;45945;-67
2022/11/28 08:43:39;;;;;;;;;8.50;8.50;;;;;10.90;78.65;100771.13;5063408;27;45532;-68
2022/11/28 08:46:08;;;;;;;;;10.75;9.50;;;;;10.80;78.91;100754.50;5062017;28;45726;-68
2022/11/28 08:48:35;;;;;;;;;9.00;8.50;;;;;10.84;79.28;100748.38;5067345;28;45775;-66
2022/11/28 08:51:02;;;;;;;;;8.75;8.75;;;;;10.80;78.76;100752.75;5057682;28;45695;-68
2022/11/28 08:53:29;;;;;;;;;14.00;8.00;;;;;10.75;78.84;100748.41;5070771;27;45479;-72
2022/11/28 08:55:55;;;;;;;;;8.50;7.50;;;;;10.71;78.59;100755.34;5059517;28;45874;-67
2022/11/28 08:58:21;;;;;;;;;10.00;9.25;;;;;10.72;79.10;100764.09;5055085;28;45507;-68
2022/11/28 09:00:48;;;;;;;;;11.75;8.25;;;;;10.70;79.20;100751.00;5055903;28;45606;-67
2022/11/28 09:03:16;;;;;;;;;7.75;6.50;;;;;10.69;79.10;100745.75;5070748;27;45429;-67
2022/11/28 09:05:44;;;;;;;;;9.75;8.00;;;;;10.65;79.44;100747.47;5052945;28;45849;-72
2022/11/28 09:08:11;;;;;;;;;9.00;8.75;;;;;10.76;79.80;100739.66;5051840;28;45819;-69
2022/11/28 09:10:39;;;;;;;;;8.00;6.75;;;;;10.78;79.62;100738.78;5068401;28;45389;-70
2022/11/28 09:13:05;;;;;;;;;9.25;8.50;;;;;10.64;78.63;100714.31;5059155;28;45802;-68
2022/11/28 09:15:32;;;;;;;;;13.25;10.00;;;;;10.87;78.89;100756.25;5063397;28;46415;-73
2022/11/28 09:17:58;;;;;;;;;8.75;8.00;;;;;10.83;78.74;100755.38;5074617;28;45458;-68
2022/11/28 09:20:24;;;;;;;;;10.25;6.75;;;;;10.92;78.18;100761.50;5074578;28;45448;-67
2022/11/28 09:22:50;;;;;;;;;15.25;8.75;;;;;10.92;78.50;100759.75;5071106;28;45398;-68
2022/11/28 09:25:16;;;;;;;;;14.00;8.75;;;;;10.92;78.44;100762.38;5050278;28;45701;-70
2022/11/28 09:27:42;;;;;;;;;8.25;6.25;;;;;10.93;78.46;100766.72;5060515;28;45468;-70
2022/11/28 09:30:09;;;;;;;;;7.50;5.50;;;;;10.92;78.15;100772.00;5054307;28;45410;-67
2022/11/28 09:32:35;;;;;;;;;10.50;9.00;;;;;10.89;78.19;100769.34;5040481;28;45750;-68
2022/11/28 09:35:01;;;;;;;;;13.50;8.25;;;;;10.87;78.42;100772.00;5060341;28;46512;-68
2022/11/28 09:37:27;;;;;;;;;8.00;7.00;;;;;10.90;78.95;100781.59;5053737;28;45455;-70
2022/11/28 09:39:54;;;;;;;;;10.75;7.50;;;;;10.93;78.77;100765.88;5058091;28;45525;-67
2022/11/28 09:42:37;;;;;;;;;12.00;9.00;;;;;10.96;77.90;100777.25;5060003;27;46246;-69
2022/11/28 09:45:09;;;;;;;;;14.00;7.25;;;;;10.94;77.84;100757.13;5065650;28;46095;-73
2022/11/28 09:47:37;;;;;;;;;6.25;5.50;;;;;11.15;77.37;100779.84;5067665;28;45468;-69
2022/11/28 09:50:18;;;;;;;;;10.75;9.00;;;;;11.28;77.03;100781.63;5073205;28;45520;-68
2022/11/28 09:53:12;;;;;;;;;5.00;3.25;;;;;11.46;77.21;100784.22;5060024;28;45718;-68
2022/11/28 09:55:48;;;;;;;;;9.75;7.25;;;;;11.63;76.05;100778.09;5070242;28;47112;-69
2022/11/28 09:58:23;;;;;;;;;8.50;6.25;;;;;11.87;75.33;100772.81;5070977;28;45536;-68
2022/11/28 10:01:16;;;;;;;;;8.25;7.00;;;;;11.97;74.88;100762.28;5070598;27;45627;-71
2022/11/28 10:03:57;;;;;;;;;14.25;8.75;;;;;12.12;74.10;100764.84;5027742;28;45355;-70
2022/11/28 10:07:01;;;;;;;;;11.25;8.75;;;;;12.09;74.14;100760.47;5051826;28;45825;-67
2022/11/28 10:09:40;;;;;;;;;7.33;7.33;;;;;12.04;74.43;100764.00;5053885;28;45522;-68
2022/11/28 10:13:03;;;;;;;;;14.50;10.75;;;;;12.17;73.23;100768.34;5065572;27;45974;-67
2022/11/28 10:15:38;;;;;;;;;11.50;8.25;;;;;13.10;71.35;100772.19;4973493;28;45531;-71
2022/11/28 10:18:34;;;;;;;;;13.00;11.25;;;;;14.10;67.41;100762.47;4989968;28;46534;-66
2022/11/28 10:21:22;;;;;;;;;9.75;8.00;;;;;14.51;66.69;100761.91;5059475;28;45526;-67
2022/11/28 10:23:52;;;;;;;;;11.00;7.25;;;;;15.12;64.82;100768.06;5048582;28;45535;-68
2022/11/28 10:26:34;;;;;;;;;8.33;7.67;;;;;16.09;61.63;100764.56;5063906;28;45422;-68
2022/11/28 10:29:24;;;;;;;;;10.33;6.33;;;;;17.75;56.37;100752.72;5039098;28;46173;-67
2022/11/28 10:31:56;;;;;;;;;10.67;7.33;;;;;21.18;49.60;100739.19;5057188;28;45430;-67
2022/11/28 10:34:52;;;;;;;;;8.67;5.33;;;;;23.70;45.05;100746.09;5062897;28;45469;-66
2022/11/28 10:37:25;;;;;;;;;8.67;5.00;;;;;24.96;41.46;100747.22;5053542;28;45545;-68
2022/11/28 10:39:54;;;;;;;;;7.00;5.00;;;;;25.72;40.13;100742.75;5055797;28;45492;-68
2022/11/28 10:42:43;;;;;;;;;9.00;6.00;;;;;25.93;38.34;100743.28;5058014;28;45463;-67
2022/11/28 10:45:26;;;;;;;;;4.00;3.33;;;;;25.47;37.96;100740.72;5054174;28;45643;-65
2022/11/28 10:48:23;;;;;;;;;6.33;4.67;;;;;25.35;38.79;100737.81;5053416;28;45719;-70
2022/11/28 10:51:15;;;;;;;;;5.67;3.67;;;;;26.90;35.56;100726.38;5056030;28;46817;-68
2022/11/28 10:54:23;;;;;;;;;7.67;4.67;;;;;28.18;33.97;100719.31;5037081;27;45874;-68
2022/11/28 10:57:07;;;;;;;;;4.75;4.00;;;;;29.73;31.00;100720.34;4978678;28;45574;-68
2022/11/28 11:00:07;;;;;;;;;6.25;4.00;;;;;30.99;29.80;100726.34;5057303;28;45380;-71
2022/11/28 11:02:40;;;;;;;;;5.75;4.00;;;;;32.11;28.39;100727.56;5056373;28;45464;-69
2022/11/28 11:05:12;;;;;;;;;4.50;3.50;;;;;32.19;27.02;100707.91;5056745;28;45679;-68
2022/11/28 11:07:42;;;;;;;;;7.25;4.50;;;;;30.22;29.25;100686.69;5055294;28;45672;-73
2022/11/28 11:10:15;;;;;;;;;5.50;4.00;;;;;28.46;31.98;100718.22;5054133;28;45787;-71
2022/11/28 11:12:42;;;;;;;;;3.00;3.00;;;;;26.23;33.76;100722.56;5055258;28;45556;-70
2022/11/28 11:15:25;;;;;;;;;3.75;3.75;;;;;24.16;37.67;100712.50;5056546;28;45469;-76
2022/11/28 11:17:51;;;;;;;;;5.75;3.25;;;;;23.05;39.08;100731.63;5072178;27;45395;-74
2022/11/28 11:20:37;;;;;;;;;4.00;4.00;;;;;22.03;41.33;100732.84;5065534;27;45346;-73
2022/11/28 11:23:17;;;;;;;;;4.50;3.25;;;;;20.77;43.21;100746.22;5063527;27;46033;-70
2022/11/28 11:25:57;;;;;;;;;3.00;3.00;;;;;20.37;45.02;100742.44;5060583;28;45327;-67
2022/11/28 11:28:47;;;;;;;;;5.00;2.67;;;;;20.01;45.71;100748.22;5040706;28;45922;-69
2022/11/28 11:31:32;;;;;;;;;5.33;2.67;;;;;19.81;46.34;100742.75;5062666;28;45495;-66
2022/11/28 11:34:11;;;;;;;;;4.33;3.33;;;;;19.42;47.01;100744.06;5063677;28;46227;-68
2022/11/28 11:36:37;;;;;;;;;2.00;2.00;;;;;19.13;47.51;100728.28;5059757;28;45566;-72
2022/11/28 11:39:18;;;;;;;;;4.00;3.00;;;;;18.96;49.53;100718.19;5065197;28;45504;-69
2022/11/28 11:41:49;;;;;;;;;3.33;3.33;;;;;19.15;48.79;100721.09;5073021;28;45620;-71
2022/11/28 11:44:15;;;;;;;;;3.00;2.00;;;;;19.08;49.00;100717.81;5057149;28;47306;-77
2022/11/28 11:46:55;;;;;;;;;6.67;5.00;;;;;18.82;49.47;100714.22;5073956;28;45357;-68